Search
FMA V3 P2006T
VID_20230630_191212_00_003_2023-08-06_18-26-47_screenshot
Cover Photo 2024 - 1
Search

Aerodrome Weather

LMML - Malta International Airport

20 April, 9:45 AM
40 minutes ago
VFR
Flight Category
1016
Air Pressure
290°/13kts
Wind Speed
19°C
Temperature
9°C
Dew Point
9.7 km
Visibility
LMML 200945Z 29013KT 9999 FEW025 19/09 Q1016 NOSIG

Live Runway Winds

kt 0 5 10 20 30 40 60
23

7 kt Headwind

11 kt Right Crosswind

05

7 kt Tailwind

11 kt Left Crosswind

13

12 kt Tailwind

4 kt Right Crosswind

31

12 kt Headwind

4 kt Left Crosswind

Civil Twilight

Select Date:

Sunrise (UTC)

Night End
Sunrise

Sunset (UTC)

Sunset
Night Start
What is Civil Twilight?

Defined by how far the sun is below the horizon, when the geometric center of the sun is 6 degrees below the horizon.

Therefore morning civil twilight begins when the geometric center of the sun is 6 degrees below the horizon, and ends at sunrise.

Evening civil twilight begins at sunset, and ends when the geometric center of the sun is 6 degrees below the horizon.

For LMML, such data has been supplied by the U.S. Naval Observatory in colaboration with Transport Malta.

Full list of tables can be found here

Density Alt: 768ft (MSL)

Density Alt: 768ft
LMML: 297ft
471ft
Temperature: 19°C
QNH: 1016hPa

Aerodrome Weather

LICB - Comiso Airport

20 April, 9:50 AM
35 minutes ago
VFR
Flight Category
1014
Air Pressure
260°/15kts
Wind Speed
18°C
Temperature
1°C
Dew Point
9.7 km
Visibility
LICB 200950Z AUTO 26015KT 240V310 9999 NCD 18/01 Q1014

Live Runway Winds

kt 0 5 10 20 30 40 60
23

13 kt Headwind

8 kt Right Crosswind

05

13 kt Tailwind

8 kt Left Crosswind

Civil Twilight

Sunrise (UTC)

Night End
Sunrise

Sunset (UTC)

Sunset
Night Start
What is Civil Twilight?

Defined by how far the sun is below the horizon, when the geometric center of the sun is 6 degrees below the horizon.

Therefore morning civil twilight begins when the geometric center of the sun is 6 degrees below the horizon, and ends at sunrise.

Evening civil twilight begins at sunset, and ends when the geometric center of the sun is 6 degrees below the horizon.

For LMML, such data has been supplied by the U.S. Naval Observatory in colaboration with Transport Malta.

Full list of tables can be found here

Density Alt: 1167ft (MSL)

Density Alt: 1167ft
LICB: 756ft
411ft
Temperature: 18°C
QNH: 1014hPa

Aerodrome Weather

LICC - Catania-Fontanarossa Airport

20 April, 9:50 AM
35 minutes ago
VFR
Flight Category
1013
Air Pressure
250°/12kts
Wind Speed
21°C
Temperature
1°C
Dew Point
9.7 km
Visibility
LICC 200950Z 25012KT CAVOK 21/01 Q1013

Live Runway Winds

kt 0 5 10 20 30 40 60
08

12 kt Tailwind

2 kt Right Crosswind

26

12 kt Headwind

2 kt Left Crosswind

Civil Twilight

Sunrise (UTC)

Night End
Sunrise

Sunset (UTC)

Sunset
Night Start
What is Civil Twilight?

Defined by how far the sun is below the horizon, when the geometric center of the sun is 6 degrees below the horizon.

Therefore morning civil twilight begins when the geometric center of the sun is 6 degrees below the horizon, and ends at sunrise.

Evening civil twilight begins at sunset, and ends when the geometric center of the sun is 6 degrees below the horizon.

For LMML, such data has been supplied by the U.S. Naval Observatory in colaboration with Transport Malta.

Full list of tables can be found here

Density Alt: 840ft (MSL)

Density Alt: 840ft
LICC: 39ft
801ft
Temperature: 21°C
QNH: 1013hPa

Aerodrome Weather

LICR - Reggio Calabria Airport

20 April, 9:50 AM
35 minutes ago
VFR
Flight Category
1013
Air Pressure
360°/9kts
Wind Speed
19°C
Temperature
7°C
Dew Point
9.7 km
Visibility
LICR 200950Z AUTO 36009KT 320V070 9999 NCD 19/07 Q1013

Live Runway Winds

kt 0 5 10 20 30 40 60
15

8 kt Tailwind

5 kt Left Crosswind

33

8 kt Headwind

5 kt Right Crosswind

11

3 kt Tailwind

8 kt Left Crosswind

29

3 kt Headwind

8 kt Right Crosswind

Civil Twilight

Sunrise (UTC)

Night End
Sunrise

Sunset (UTC)

Sunset
Night Start
What is Civil Twilight?

Defined by how far the sun is below the horizon, when the geometric center of the sun is 6 degrees below the horizon.

Therefore morning civil twilight begins when the geometric center of the sun is 6 degrees below the horizon, and ends at sunrise.

Evening civil twilight begins at sunset, and ends when the geometric center of the sun is 6 degrees below the horizon.

For LMML, such data has been supplied by the U.S. Naval Observatory in colaboration with Transport Malta.

Full list of tables can be found here

Density Alt: 657ft (MSL)

Density Alt: 657ft
LICR: 96ft
561ft
Temperature: 19°C
QNH: 1013hPa

Flying Malta App V3

Welcome to the Flying Malta App, a web-app dedicated to providing useful information for pilots and aviation enthusiasts both for Malta and it’s neighboring countries.. Whether you’re a local pilot, visiting from abroad, or just interested in learning more about aviation in Malta, Flying Malta App offers a variety of resources and tools to help you navigate the skies safely and efficiently. From the latest weather updates and airspace information to airport details and flight planning tools, we’ve got you covered. So take a look around and discover all that Flying Malta App has to offer.